createdAt,value
2023-05-25T00:00:38.294Z,8.33
2023-05-25T00:03:45.647Z,8.63
2023-05-25T00:06:52.912Z,8.43
2023-05-25T00:09:58.419Z,9.03
2023-05-25T00:13:04.918Z,8.15
2023-05-25T00:16:10.422Z,8.95
2023-05-25T00:19:12.692Z,8.88
2023-05-25T00:22:11.717Z,9.15
2023-05-25T00:25:19.475Z,9.88
2023-05-25T00:28:26.572Z,9.85
2023-05-25T00:31:33.506Z,9.08
2023-05-25T00:34:40.347Z,8.83
2023-05-25T00:37:39.765Z,8.50
2023-05-25T00:40:45.568Z,9.35
2023-05-25T00:43:53.597Z,10.85
2023-05-25T00:47:03.872Z,9.03
2023-05-25T00:53:13.353Z,8.08
2023-05-25T00:56:23.233Z,8.58
2023-05-25T01:02:38.319Z,7.55
2023-05-25T01:05:46.014Z,8.78
2023-05-25T01:08:52.452Z,8.83
2023-05-25T01:12:00.982Z,8.88
2023-05-25T01:15:00.810Z,9.00
2023-05-25T01:18:06.686Z,8.28
2023-05-25T01:21:36.913Z,8.63
2023-05-25T01:28:32.517Z,8.07
2023-05-25T01:31:38.350Z,8.20
2023-05-25T01:34:46.010Z,9.30
2023-05-25T01:37:53.123Z,8.90
2023-05-25T01:40:59.938Z,8.10
2023-05-25T01:44:06.076Z,9.00
2023-05-25T01:47:22.506Z,9.23
2023-05-25T01:50:41.533Z,9.55
2023-05-25T01:54:00.541Z,9.18
2023-05-25T01:57:05.942Z,8.70
2023-05-25T02:00:11.993Z,9.05
2023-05-25T02:03:20.144Z,9.33
2023-05-25T02:06:26.499Z,9.33
2023-05-25T02:09:33.583Z,8.43
2023-05-25T02:12:38.519Z,9.38
2023-05-25T02:15:46.486Z,9.13
2023-05-25T02:18:53.567Z,8.10
2023-05-25T02:21:59.453Z,9.53
2023-05-25T02:25:05.639Z,9.03
2023-05-25T02:28:12.460Z,8.08
2023-05-25T02:31:18.793Z,8.95
2023-05-25T02:34:24.995Z,10.13
2023-05-25T02:37:30.450Z,10.32
2023-05-25T02:40:35.685Z,9.73
2023-05-25T02:43:40.852Z,9.43
2023-05-25T02:46:47.009Z,9.45
2023-05-25T02:49:52.245Z,8.83
2023-05-25T02:52:58.468Z,8.58
2023-05-25T02:56:05.499Z,9.05
2023-05-25T02:59:11.603Z,9.68
2023-05-25T03:02:11.143Z,8.80
2023-05-25T03:08:22.028Z,8.75
2023-05-25T03:11:30.797Z,9.13
2023-05-25T03:14:36.645Z,8.13
2023-05-25T03:17:43.257Z,7.92
2023-05-25T03:20:49.033Z,8.55
2023-05-25T03:23:55.772Z,7.87
2023-05-25T03:27:01.464Z,8.70
2023-05-25T03:30:07.365Z,8.55
2023-05-25T03:33:13.010Z,8.15
2023-05-25T03:36:24.391Z,9.20
2023-05-25T03:39:30.804Z,9.08
2023-05-25T03:42:36.161Z,8.53
2023-05-25T03:45:41.862Z,9.63
2023-05-25T03:48:47.947Z,10.85
2023-05-25T03:51:55.724Z,11.43
2023-05-25T03:55:02.029Z,11.63
2023-05-25T03:58:09.782Z,11.83
2023-05-25T04:01:17.097Z,11.78
2023-05-25T04:04:23.893Z,11.28
2023-05-25T04:07:30.930Z,11.18
2023-05-25T04:10:37.534Z,11.65
2023-05-25T04:13:43.484Z,12.45
2023-05-25T04:16:49.921Z,11.63
2023-05-25T04:19:57.270Z,13.05
2023-05-25T04:22:56.938Z,12.63
2023-05-25T04:26:04.937Z,13.40
2023-05-25T04:29:13.997Z,12.43
2023-05-25T04:32:25.542Z,11.63
2023-05-25T04:35:35.612Z,11.85
2023-05-25T04:38:41.619Z,8.83
2023-05-25T04:41:47.079Z,10.30
2023-05-25T04:44:55.345Z,8.98
2023-05-25T04:48:04.760Z,8.55
2023-05-25T04:51:11.097Z,8.30
2023-05-25T04:54:16.894Z,8.20
2023-05-25T04:57:22.696Z,7.95
2023-05-25T05:00:29.115Z,9.13
2023-05-25T05:03:34.405Z,7.83
2023-05-25T05:06:40.067Z,7.65
2023-05-25T05:09:48.770Z,7.75
2023-05-25T05:12:55.337Z,8.75
2023-05-25T05:16:04.181Z,6.78
2023-05-25T05:19:10.844Z,6.92
2023-05-25T05:22:16.370Z,6.95
2023-05-25T05:25:23.163Z,6.92
2023-05-25T05:28:28.542Z,6.72
2023-05-25T05:31:35.713Z,6.37
2023-05-25T05:34:42.208Z,6.80
2023-05-25T05:37:54.472Z,7.90
2023-05-25T05:41:01.344Z,6.83
2023-05-25T05:44:07.635Z,7.10
2023-05-25T05:47:13.956Z,7.35
2023-05-25T05:50:20.671Z,7.53
2023-05-25T05:53:26.004Z,7.05
2023-05-25T05:56:36.866Z,6.67
2023-05-25T05:59:42.068Z,7.53
2023-05-25T06:02:47.720Z,6.30
2023-05-25T06:05:55.290Z,6.12
2023-05-25T06:09:01.163Z,5.30
2023-05-25T06:12:05.498Z,5.60
2023-05-25T06:15:11.643Z,6.10
2023-05-25T06:18:19.703Z,5.97
2023-05-25T06:21:25.194Z,5.25
2023-05-25T06:24:30.575Z,5.75
2023-05-25T06:27:36.593Z,5.95
2023-05-25T06:30:44.050Z,5.25
2023-05-25T06:33:50.470Z,5.80
2023-05-25T06:36:56.424Z,5.87
2023-05-25T06:40:01.340Z,4.78
2023-05-25T06:43:06.732Z,4.67
2023-05-25T06:50:24.894Z,4.80
2023-05-25T06:53:29.677Z,5.58
2023-05-25T06:56:35.837Z,5.10
2023-05-25T06:59:40.868Z,5.72
2023-05-25T07:02:46.078Z,5.50
2023-05-25T07:05:51.609Z,5.95
2023-05-25T07:08:58.501Z,5.30
2023-05-25T07:11:57.452Z,5.33
2023-05-25T07:15:03.739Z,5.23
2023-05-25T07:18:08.963Z,5.22
2023-05-25T07:21:13.852Z,5.53
2023-05-25T07:24:20.044Z,5.47
2023-05-25T07:27:28.234Z,5.05
2023-05-25T07:30:34.262Z,5.33
2023-05-25T07:33:39.966Z,5.67
2023-05-25T07:36:46.398Z,5.92
2023-05-25T07:39:52.014Z,5.47
2023-05-25T07:42:58.142Z,7.15
2023-05-25T07:46:03.635Z,6.05
2023-05-25T07:49:09.885Z,5.78
2023-05-25T07:52:14.993Z,6.03
2023-05-25T07:55:25.621Z,5.37
2023-05-25T07:58:31.148Z,5.05
2023-05-25T08:01:39.567Z,6.05
2023-05-25T08:04:46.606Z,5.22
2023-05-25T08:07:51.714Z,7.28
2023-05-25T08:11:00.047Z,4.72
2023-05-25T08:14:05.076Z,6.28
2023-05-25T08:17:11.328Z,5.28
2023-05-25T08:20:17.477Z,6.40
2023-05-25T08:23:22.367Z,5.53
2023-05-25T08:26:38.384Z,6.42
2023-05-25T08:29:33.426Z,5.97
2023-05-25T08:32:39.399Z,6.20
2023-05-25T08:35:47.588Z,14.10
2023-05-25T08:38:53.271Z,14.63
2023-05-25T08:42:01.446Z,19.23
2023-05-25T08:45:12.455Z,18.12
2023-05-25T08:48:35.568Z,17.50
2023-05-25T08:51:26.441Z,20.57
2023-05-25T08:54:33.738Z,21.27
2023-05-25T08:58:05.023Z,20.85
2023-05-25T09:01:14.769Z,19.62
2023-05-25T09:04:21.482Z,20.50
2023-05-25T09:07:27.101Z,16.48
2023-05-25T09:10:35.466Z,14.03
2023-05-25T09:13:41.563Z,13.90
2023-05-25T09:16:47.443Z,12.40
2023-05-25T09:19:53.478Z,12.33
2023-05-25T09:23:03.104Z,11.45
2023-05-25T09:37:38.979Z,7.83
2023-05-25T09:40:49.418Z,6.90
2023-05-25T09:44:06.658Z,7.60
2023-05-25T09:47:01.643Z,6.80
2023-05-25T09:50:08.594Z,6.80
2023-05-25T09:53:15.329Z,6.30
2023-05-25T09:56:21.644Z,5.97
2023-05-25T09:59:28.259Z,5.90
2023-05-25T10:02:34.900Z,5.22
2023-05-25T10:05:39.872Z,6.08
2023-05-25T10:08:45.766Z,6.28
2023-05-25T10:11:51.455Z,6.83
2023-05-25T10:14:56.974Z,7.90
2023-05-25T10:18:09.478Z,7.15
2023-05-25T10:21:18.810Z,7.10
2023-05-25T10:24:32.164Z,6.35
2023-05-25T10:27:39.171Z,8.35
2023-05-25T10:30:44.493Z,8.15
2023-05-25T10:33:52.501Z,8.73
2023-05-25T10:36:58.381Z,8.10
2023-05-25T10:40:04.838Z,8.73
2023-05-25T10:43:12.075Z,8.63
2023-05-25T10:46:21.442Z,8.43
2023-05-25T10:49:27.597Z,10.30
2023-05-25T10:52:34.445Z,10.63
2023-05-25T10:55:39.470Z,10.60
2023-05-25T10:58:46.947Z,10.20
2023-05-25T11:02:04.176Z,9.60
2023-05-25T11:05:45.726Z,9.75
2023-05-25T11:09:13.474Z,8.45
2023-05-25T11:12:20.211Z,9.13
2023-05-25T11:15:29.351Z,10.05
2023-05-25T11:18:35.419Z,9.50
2023-05-25T11:21:56.856Z,9.18
2023-05-25T11:25:07.506Z,10.70
2023-05-25T11:28:21.004Z,8.33
2023-05-25T11:31:30.649Z,8.40
2023-05-25T11:34:37.255Z,8.43
2023-05-25T11:40:49.236Z,7.95
2023-05-25T11:43:56.171Z,7.03
2023-05-25T11:47:03.681Z,7.85
2023-05-25T11:50:12.730Z,8.05
2023-05-25T11:53:21.890Z,8.50
2023-05-25T11:56:35.584Z,10.63
2023-05-25T11:59:37.218Z,9.50
2023-05-25T12:02:45.220Z,9.88
2023-05-25T12:05:54.588Z,9.15
2023-05-25T12:12:05.833Z,9.05
2023-05-25T12:15:11.255Z,8.70
2023-05-25T12:18:09.372Z,9.53
2023-05-25T12:21:16.137Z,9.18
2023-05-25T12:24:16.823Z,9.15
2023-05-25T12:27:12.131Z,7.83
2023-05-25T12:30:18.619Z,7.80
2023-05-25T12:36:26.647Z,8.33
2023-05-25T12:39:47.149Z,8.48
2023-05-25T12:42:54.522Z,8.20
2023-05-25T12:46:01.366Z,8.33
2023-05-25T12:49:05.869Z,8.33
2023-05-25T12:52:15.446Z,8.40
2023-05-25T12:55:49.090Z,6.53
2023-05-25T12:58:55.599Z,5.72
2023-05-25T13:02:01.509Z,5.37
2023-05-25T13:05:07.933Z,6.00
2023-05-25T13:08:14.588Z,6.35
2023-05-25T13:11:21.428Z,7.37
2023-05-25T13:14:28.902Z,7.67
2023-05-25T13:17:35.363Z,7.83
2023-05-25T13:20:41.608Z,8.33
2023-05-25T13:23:48.930Z,8.33
2023-05-25T13:26:55.847Z,7.85
2023-05-25T13:30:02.701Z,8.00
2023-05-25T13:33:08.054Z,8.40
2023-05-25T13:36:15.492Z,8.78
2023-05-25T13:39:21.737Z,7.65
2023-05-25T13:42:26.574Z,8.33
2023-05-25T13:45:32.430Z,8.63
2023-05-25T13:48:38.534Z,8.28
2023-05-25T13:51:45.535Z,9.03
2023-05-25T13:54:51.500Z,7.67
2023-05-25T13:57:58.560Z,8.10
2023-05-25T14:01:03.872Z,8.43
2023-05-25T14:04:09.254Z,7.87
2023-05-25T14:07:17.376Z,7.62
2023-05-25T14:10:17.702Z,7.75
2023-05-25T14:13:23.059Z,7.33
2023-05-25T14:16:28.982Z,7.80
2023-05-25T14:19:34.011Z,7.42
2023-05-25T14:22:39.584Z,7.45
2023-05-25T14:25:45.505Z,7.35
2023-05-25T14:28:50.943Z,8.90
2023-05-25T14:31:57.913Z,7.00
2023-05-25T14:35:03.336Z,7.87
2023-05-25T14:38:09.337Z,7.20
2023-05-25T14:41:16.094Z,7.60
2023-05-25T14:44:22.218Z,7.12
2023-05-25T14:47:28.059Z,7.67
2023-05-25T14:50:34.029Z,6.28
2023-05-25T14:53:39.742Z,6.58
2023-05-25T14:56:46.948Z,5.80
2023-05-25T14:59:48.224Z,6.20
2023-05-25T15:02:54.909Z,6.58
2023-05-25T15:06:01.695Z,6.33
2023-05-25T15:09:07.225Z,6.37
2023-05-25T15:12:14.601Z,6.53
2023-05-25T15:15:19.824Z,6.20
2023-05-25T15:18:18.481Z,6.65
2023-05-25T15:21:23.817Z,6.33
2023-05-25T15:24:29.151Z,6.75
2023-05-25T15:27:34.406Z,6.20
2023-05-25T15:30:41.450Z,6.08
2023-05-25T15:33:53.759Z,5.95
2023-05-25T15:36:55.369Z,5.25
2023-05-25T15:40:01.371Z,6.35
2023-05-25T15:43:08.159Z,6.20
2023-05-25T15:46:14.806Z,6.08
2023-05-25T15:49:20.237Z,5.60
2023-05-25T15:52:25.835Z,6.05
2023-05-25T15:55:31.139Z,6.83
2023-05-25T15:58:39.675Z,6.47
2023-05-25T16:01:45.682Z,5.97
2023-05-25T16:04:51.197Z,5.97
2023-05-25T16:07:57.705Z,5.45
2023-05-25T16:11:03.612Z,5.85
2023-05-25T16:14:12.109Z,6.70
2023-05-25T16:17:18.608Z,6.03
2023-05-25T16:20:25.107Z,5.87
2023-05-25T16:23:31.739Z,5.65
2023-05-25T16:26:37.277Z,5.87
2023-05-25T16:29:43.735Z,5.83
2023-05-25T16:32:49.514Z,5.20
2023-05-25T16:35:55.517Z,6.05
2023-05-25T16:39:01.784Z,5.30
2023-05-25T16:42:07.389Z,6.25
2023-05-25T16:45:13.704Z,5.50
2023-05-25T16:48:20.841Z,6.70
2023-05-25T16:51:20.642Z,6.80
2023-05-25T16:54:26.318Z,6.78
2023-05-25T16:57:24.670Z,6.78
2023-05-25T17:00:30.764Z,7.08
2023-05-25T17:03:36.988Z,7.22
2023-05-25T17:06:44.053Z,7.05
2023-05-25T17:09:50.123Z,7.15
2023-05-25T17:12:56.838Z,7.92
2023-05-25T17:16:02.971Z,8.53
2023-05-25T17:19:10.136Z,9.13
2023-05-25T17:22:16.585Z,8.88
2023-05-25T17:25:22.862Z,9.00
2023-05-25T17:28:28.097Z,8.80
2023-05-25T17:31:36.408Z,9.60
2023-05-25T17:34:42.723Z,9.08
2023-05-25T17:37:49.327Z,8.43
2023-05-25T17:40:54.529Z,8.05
2023-05-25T17:44:01.389Z,6.80
2023-05-25T17:47:10.726Z,7.62
2023-05-25T17:50:16.123Z,7.72
2023-05-25T17:53:21.338Z,7.95
2023-05-25T17:56:29.073Z,7.58
2023-05-25T17:59:35.070Z,7.50
2023-05-25T18:02:41.999Z,6.25
2023-05-25T18:05:48.628Z,7.50
2023-05-25T18:08:55.278Z,6.80
2023-05-25T18:12:01.904Z,7.60
2023-05-25T18:15:08.818Z,7.33
2023-05-25T18:18:14.888Z,7.95
2023-05-25T18:21:21.432Z,7.33
2023-05-25T18:24:27.553Z,7.15
2023-05-25T18:27:32.706Z,7.92
2023-05-25T18:30:34.702Z,8.50
2023-05-25T18:33:34.048Z,8.10
2023-05-25T18:36:40.156Z,8.83
2023-05-25T18:39:46.461Z,8.85
2023-05-25T18:42:52.091Z,8.43
2023-05-25T18:45:58.876Z,8.68
2023-05-25T18:49:03.406Z,7.70
2023-05-25T18:52:09.040Z,7.97
2023-05-25T18:55:14.157Z,7.83
2023-05-25T18:58:19.556Z,8.18
2023-05-25T19:01:24.814Z,9.15
2023-05-25T19:04:30.484Z,8.80
2023-05-25T19:07:37.668Z,8.55
2023-05-25T19:10:44.457Z,9.25
2023-05-25T19:13:50.244Z,9.50
2023-05-25T19:16:56.832Z,9.23
2023-05-25T19:20:03.772Z,8.38
2023-05-25T19:23:09.801Z,9.85
2023-05-25T19:26:15.438Z,10.70
2023-05-25T19:29:22.041Z,9.93
2023-05-25T19:32:29.040Z,9.60
2023-05-25T19:35:34.798Z,10.23
2023-05-25T19:38:41.753Z,10.85
2023-05-25T19:41:45.915Z,10.75
2023-05-25T19:44:52.187Z,10.30
2023-05-25T19:47:59.793Z,10.15
2023-05-25T19:51:05.702Z,11.12
2023-05-25T19:54:11.709Z,10.35
2023-05-25T19:57:20.284Z,10.98
2023-05-25T20:00:27.366Z,10.35
2023-05-25T20:03:34.844Z,11.35
2023-05-25T20:06:40.917Z,11.93
2023-05-25T20:09:39.482Z,10.78
2023-05-25T20:12:31.815Z,10.32
2023-05-25T20:15:37.087Z,10.43
2023-05-25T20:18:42.652Z,11.43
2023-05-25T20:21:47.699Z,11.03
2023-05-25T20:24:53.860Z,10.20
2023-05-25T20:27:59.743Z,9.60
2023-05-25T20:31:06.095Z,10.82
2023-05-25T20:34:11.833Z,10.45
2023-05-25T20:37:18.685Z,10.38
2023-05-25T20:40:24.494Z,10.23
2023-05-25T20:43:31.020Z,10.55
2023-05-25T20:46:36.996Z,13.00
2023-05-25T20:49:42.771Z,12.35
2023-05-25T20:52:48.358Z,11.20
2023-05-25T20:55:55.394Z,10.45
2023-05-25T20:59:01.803Z,11.25
2023-05-25T21:02:07.207Z,12.25
2023-05-25T21:05:14.348Z,11.40
2023-05-25T21:08:19.895Z,11.90
2023-05-25T21:11:25.214Z,11.78
2023-05-25T21:14:31.329Z,11.80
2023-05-25T21:17:37.952Z,12.75
2023-05-25T21:20:44.793Z,12.35
2023-05-25T21:23:51.096Z,11.40
2023-05-25T21:26:57.617Z,11.28
2023-05-25T21:30:04.361Z,10.28
2023-05-25T21:33:10.995Z,9.98
2023-05-25T21:36:16.524Z,9.85
2023-05-25T21:39:22.129Z,10.03
2023-05-25T21:42:28.220Z,10.95
2023-05-25T21:45:34.678Z,10.48
2023-05-25T21:48:41.330Z,11.50
2023-05-25T21:51:46.961Z,10.30
2023-05-25T21:54:51.659Z,10.30
2023-05-25T21:57:57.334Z,12.53
2023-05-25T22:01:04.456Z,13.22
2023-05-25T22:04:10.798Z,12.65
2023-05-25T22:07:15.716Z,14.10
2023-05-25T22:10:22.503Z,13.93
2023-05-25T22:13:29.165Z,13.18
2023-05-25T22:16:35.431Z,10.55
2023-05-25T22:19:43.205Z,10.43
2023-05-25T22:22:49.740Z,10.60
2023-05-25T22:25:54.156Z,11.35
2023-05-25T22:29:00.485Z,10.48
2023-05-25T22:32:06.132Z,10.90
2023-05-25T22:35:12.472Z,10.80
2023-05-25T22:38:18.472Z,11.10
2023-05-25T22:41:23.122Z,10.45
2023-05-25T22:44:30.029Z,10.30
2023-05-25T22:47:35.975Z,10.58
2023-05-25T22:50:41.901Z,10.98
2023-05-25T22:53:47.948Z,9.70
2023-05-25T22:56:47.095Z,9.70
2023-05-25T22:59:53.857Z,10.43
2023-05-25T23:02:53.813Z,11.00
2023-05-25T23:06:00.305Z,10.13
2023-05-25T23:09:06.879Z,11.30
2023-05-25T23:12:12.274Z,10.75
2023-05-25T23:15:18.772Z,10.38
2023-05-25T23:18:23.701Z,10.35
2023-05-25T23:21:29.549Z,9.45
2023-05-25T23:24:35.851Z,9.48
2023-05-25T23:27:42.026Z,10.75
2023-05-25T23:30:47.761Z,10.38
2023-05-25T23:33:54.139Z,11.05
2023-05-25T23:37:00.825Z,11.45
2023-05-25T23:40:05.642Z,12.25
2023-05-25T23:43:10.788Z,12.58
2023-05-25T23:46:16.356Z,13.55
2023-05-25T23:49:22.112Z,10.18
2023-05-25T23:52:28.566Z,11.05
2023-05-25T23:55:35.302Z,10.78
2023-05-25T23:58:33.885Z,8.63
